Date,TemperatureHighF,TemperatureAvgF,TemperatureLowF,DewpointHighF,DewpointAvgF,DewpointLowF,HumidityHigh,HumidityAvg,HumidityLow,PressureMaxIn,PressureMinIn,WindSpeedMaxMPH,WindSpeedAvgMPH,GustSpeedMaxMPH,PrecipitationSumIn
2013-1-1,51,50,46,51,42,29,99,79,45,30.45,30.28,9,3,9,0.24
2013-1-2,50,48,44,50,45,41,99,91,76,30.50,30.21,10,2,10,0.15
2013-1-3,45,42,31,42,39,30,97,90,80,30.61,30.43,6,2,6,0.00
2013-1-4,52,39,28,38,26,18,98,64,33,30.67,30.54,12,2,12,0.01
2013-1-5,52,40,27,35,25,18,84,56,29,30.73,30.56,8,2,8,0.00
2013-1-6,54,46,41,41,38,32,93,74,60,30.56,30.39,10,2,10,0.00
2013-1-7,53,42,34,32,29,26,77,62,40,30.75,30.52,11,3,11,0.00
2013-1-8,57,48,31,42,39,28,89,71,53,30.78,30.63,4,1,4,0.00
2013-1-9,70,56,39,51,46,37,91,72,48,30.79,30.69,6,2,6,0.00
2013-1-10,70,58,50,55,49,43,97,72,45,30.84,30.71,8,2,8,0.00
2013-1-11,53,50,47,51,50,47,99,98,84,30.71,30.50,8,2,8,0.01
2013-1-12,76,62,50,67,58,50,99,87,60,30.51,30.44,11,2,11,0.01
2013-1-13,76,66,59,62,60,58,99,81,60,30.49,30.41,12,4,12,0.00
2013-1-14,71,66,63,64,62,58,97,86,77,30.48,30.41,11,3,11,0.00
2013-1-15,67,51,45,62,50,44,99,97,83,30.53,30.40,8,3,8,0.05
2013-1-16,50,46,43,50,46,43,99,98,97,30.39,30.31,8,2,8,0.17
2013-1-17,52,46,34,51,46,33,99,98,94,30.51,30.11,24,5,24,1.84
2013-1-18,50,39,32,35,28,18,98,69,33,30.86,30.51,14,3,14,0.00
2013-1-19,57,42,27,32,26,20,83,56,25,30.81,30.49,8,3,8,0.00
2013-1-20,65,51,37,36,30,26,73,46,26,30.49,30.35,17,4,17,0.00
2013-1-21,62,47,32,35,26,10,83,48,23,30.42,30.25,15,4,15,0.00
2013-1-22,46,38,28,16,6,-5,51,27,19,30.59,30.32,14,4,14,0.00
2013-1-23,47,34,22,29,12,-1,64,42,21,30.68,30.38,10,3,10,0.00
2013-1-24,51,38,25,36,16,-5,80,44,20,30.82,30.29,17,5,17,0.00
2013-1-25,27,24,20,23,13,1,87,63,36,30.82,30.43,7,2,7,0.00
2013-1-26,46,32,24,36,28,21,96,86,66,30.69,30.40,6,1,6,0.01
2013-1-27,45,36,27,30,27,21,97,69,50,30.90,30.68,10,2,10,0.00
2013-1-28,51,43,32,49,36,26,93,78,59,30.80,30.58,9,3,9,0.01
2013-1-29,74,60,46,60,53,45,98,79,55,30.59,30.40,13,4,13,0.00
2013-1-30,75,67,64,65,62,59,96,87,62,30.41,30.03,24,8,24,0.00
2013-1-31,51,44,38,47,25,12,87,50,25,30.38,29.92,18,7,18,0.02
2013-2-1,43,38,25,28,12,1,56,37,22,30.57,29.92,20,7,20,0.00
2013-2-2,48,36,21,37,15,2,86,47,23,30.35,29.49,17,4,17,0.00
2013-2-3,56,44,32,37,29,17,92,60,25,30.13,29.95,19,5,19,0.00
2013-2-4,51,40,26,29,25,18,76,55,35,30.24,30.09,10,3,10,0.00
2013-2-5,66,51,39,45,36,28,91,59,37,30.80,29.98,17,4,17,0.00
2013-2-6,66,50,36,47,33,22,99,59,20,30.34,30.08,10,2,10,0.00
2013-2-7,46,42,40,42,37,27,99,82,51,30.38,30.05,14,4,14,0.40
2013-2-8,61,47,38,49,40,29,99,78,49,30.19,29.95,16,5,16,0.12
2013-2-9,59,45,32,31,24,17,76,48,23,30.49,30.19,11,3,11,0.00
2013-2-10,58,45,32,49,30,19,99,58,25,30.55,30.29,12,3,12,0.08
2013-2-11,60,58,49,60,58,49,99,99,99,30.30,30.13,13,9,13,0.08
2013-2-12,60,60,60,60,60,60,99,99,99,30.14,30.14,12,12,12,0.08
2013-2-13,60,50,30,60,48,11,99,93,44,30.49,29.82,14,6,14,0.10
2013-2-14,54,42,31,41,34,28,97,74,44,30.25,30.05,10,2,10,0.00
2013-2-15,63,49,32,44,34,25,99,60,25,30.27,30.12,12,3,12,0.00
2013-2-16,50,50,50,39,39,39,66,66,66,30.13,30.13,2,2,9,0.00
2013-2-17,50,50,50,39,39,39,66,66,66,30.13,30.13,2,2,9,0.00
2013-2-18,50,50,50,39,39,39,66,66,66,30.13,30.13,2,2,9,0.00
2013-2-19,50,50,50,39,39,39,66,66,66,30.13,30.13,2,2,9,0.00
2013-2-20,50,50,50,39,39,39,66,66,66,30.13,30.13,2,2,9,0.00
2013-2-21,50,50,50,39,39,39,66,66,66,30.13,30.13,2,2,9,0.00
2013-2-22,50,45,36,39,38,35,99,76,66,30.13,29.40,8,2,9,0.78
2013-2-23,43,40,36,42,39,35,99,98,97,29.85,29.58,7,2,7,0.57
2013-2-24,65,51,43,48,37,21,99,66,19,29.77,29.55,14,3,14,0.00
2013-2-25,46,41,38,29,27,25,67,57,45,29.92,29.75,11,4,11,0.00
2013-2-26,39,38,38,28,28,26,67,66,61,29.80,29.74,11,9,11,0.00
2013-2-27,140,96,48,100,68,34,77,59,53,29.93,29.88,8,3,8,0.90
2013-2-28,52,44,35,37,29,23,89,59,34,30.07,29.89,14,4,14,0.00
2013-3-1,50,41,31,35,29,24,79,62,45,30.11,30.03,12,3,12,0.00
2013-3-2,46,39,32,37,32,22,96,77,62,30.12,30.01,11,2,11,0.12
2013-3-3,47,36,26,24,18,13,75,50,27,30.19,30.06,14,3,14,0.00
2013-3-4,55,40,25,28,16,7,65,41,19,30.32,30.17,15,3,15,0.00
2013-3-5,58,47,38,50,38,24,99,72,47,30.24,29.77,14,3,14,0.35
2013-3-6,50,43,36,47,26,18,99,54,34,30.29,29.77,28,9,28,0.01
2013-3-7,55,42,29,30,26,22,81,55,31,30.44,30.27,14,4,14,0.00
2013-3-8,57,44,32,27,22,17,66,45,22,30.50,30.38,16,5,16,0.00
2013-3-9,63,49,35,36,30,24,69,49,28,30.53,30.42,10,3,10,0.00
2013-3-10,68,53,36,41,36,32,89,57,30,30.49,30.37,11,2,11,0.00
2013-3-11,70,56,41,56,43,27,95,64,46,30.40,30.06,16,4,16,0.02
2013-3-12,71,63,57,63,54,36,99,79,32,30.07,29.94,14,6,14,0.70
2013-3-13,58,48,39,35,20,16,58,33,24,30.08,29.67,17,7,17,0.70
2013-3-14,54,40,30,28,18,11,58,41,20,30.19,30.07,14,4,14,0.00
2013-3-15,66,49,29,42,29,17,84,48,26,30.14,29.84,14,4,14,0.00
2013-3-16,79,67,58,48,43,39,60,44,28,29.84,29.68,21,8,21,0.00
2013-3-17,78,62,48,56,46,39,81,58,37,30.05,29.81,14,4,14,0.00
2013-3-18,48,42,40,43,41,39,99,96,80,30.08,29.84,17,4,17,0.52
2013-3-19,67,53,41,49,32,14,99,58,14,30.02,29.81,122,5,122,0.01
2013-3-20,58,49,43,30,14,6,59,25,18,30.09,29.75,11,3,11,0.00
2013-3-21,48,41,33,29,12,4,64,32,19,29.95,29.75,21,6,21,0.00
2013-3-22,53,40,24,26,15,9,68,39,22,30.06,29.94,11,3,11,0.00
2013-3-23,51,44,39,46,38,26,99,81,45,30.03,29.88,6,1,6,0.02
2013-3-24,43,40,38,42,40,38,99,99,98,29.89,29.53,14,4,14,0.80
2013-3-25,50,42,38,41,30,13,99,67,28,29.85,29.51,23,6,23,0.05
2013-3-26,50,40,30,28,25,22,77,54,37,30.14,29.85,16,5,16,0.00
2013-3-27,53,43,33,29,22,15,68,46,25,30.23,30.11,14,5,14,0.00
2013-3-28,57,45,34,27,20,14,63,40,21,30.27,30.17,15,4,15,0.00
2013-3-29,62,49,31,38,26,19,79,45,21,30.32,30.16,13,3,13,0.00
2013-3-30,67,56,46,50,45,37,99,72,43,30.20,30.06,11,2,11,0.22
2013-3-31,71,60,50,58,53,47,99,80,53,30.06,29.81,17,5,17,0.26
2013-4-1,74,64,57,58,45,30,99,56,21,29.95,29.82,16,4,16,0.02
2013-4-2,65,54,41,41,34,22,87,50,22,30.15,29.95,11,3,11,0.00
2013-4-3,63,54,45,34,21,12,53,28,20,30.25,30.10,14,4,14,0.00
2013-4-4,50,42,37,40,34,22,99,76,37,30.26,29.92,16,5,16,0.93
2013-4-5,66,50,37,48,41,36,99,77,44,30.02,29.86,10,3,10,0.01
2013-4-6,69,56,39,43,38,32,95,53,28,30.21,30.02,12,3,12,0.00
2013-4-7,73,60,41,50,44,35,90,56,34,30.26,30.10,11,4,11,0.00
2013-4-8,71,70,43,54,50,43,98,49,47,30.10,29.77,6,3,8,2.78
2013-4-9,84,72,58,61,58,54,96,65,43,30.02,29.92,12,4,12,0.00
2013-4-10,86,74,62,63,60,57,96,65,42,29.95,29.81,12,5,12,0.00
2013-4-11,82,72,62,68,63,58,98,76,51,30.48,29.60,15,6,16,0.00
2013-4-12,81,72,62,69,59,16,99,69,25,29.65,29.47,18,7,18,0.17
2013-4-13,76,63,48,49,42,34,86,50,24,29.85,29.65,10,2,10,0.00
2013-4-14,77,63,45,54,46,39,97,59,28,29.90,29.81,10,3,10,0.00
2013-4-15,73,66,59,62,59,54,97,79,65,30.01,29.80,8,2,8,0.00
2013-4-16,77,67,58,64,61,58,99,82,55,30.11,30.01,7,1,7,0.00
2013-4-17,85,71,57,68,62,57,99,76,43,30.07,27.76,11,2,11,0.00
2013-4-18,80,71,63,66,62,59,97,76,50,30.00,29.83,12,4,12,0.00
2013-4-19,81,69,56,70,65,53,99,88,62,29.84,29.58,20,7,20,0.19
2013-4-20,67,54,45,54,37,25,95,57,24,30.06,29.71,11,2,11,0.00
2013-4-21,64,53,42,44,41,37,97,66,43,30.24,30.06,11,3,11,0.00
2013-4-22,64,53,41,42,34,22,87,54,22,30.21,30.02,13,4,13,0.00
2013-4-23,67,56,50,55,49,42,98,77,65,30.06,29.92,11,3,11,0.00
2013-4-24,76,64,51,60,56,51,99,76,50,29.95,29.82,11,4,11,0.00
2013-4-25,73,62,50,60,46,26,93,61,21,30.08,29.85,11,3,11,0.00
2013-4-26,72,60,45,52,38,30,83,48,24,30.23,30.08,10,2,10,0.00
2013-4-27,67,59,54,59,54,48,99,84,57,30.17,30.05,4,1,4,0.05
2013-4-28,60,56,54,60,56,54,99,99,97,30.06,29.85,10,2,10,1.46
2013-4-29,70,60,57,66,59,9,99,97,14,29.85,29.79,4,1,4,0.18
2013-4-30,72,64,58,64,61,57,99,89,68,29.98,29.79,8,3,8,0.00
2013-5-1,65,59,54,59,57,53,99,92,80,30.08,29.97,14,4,14,0.00
2013-5-2,63,59,57,60,58,56,99,97,88,30.10,30.01,9,4,9,0.12
2013-5-3,70,61,54,58,54,46,98,80,56,30.02,29.91,13,4,13,0.00
2013-5-4,64,56,49,54,49,43,96,78,63,29.94,29.79,14,5,14,0.00
2013-5-5,60,55,52,59,54,50,99,95,85,29.82,29.66,15,5,15,0.31
2013-5-6,71,63,56,63,56,48,99,82,47,29.70,29.60,13,4,13,0.66
2013-5-7,69,58,47,55,51,47,99,79,53,29.76,29.65,12,2,12,0.00
2013-5-8,75,64,51,62,56,51,99,80,51,29.83,29.72,10,2,10,0.01
2013-5-9,83,68,53,64,57,53,99,73,38,29.90,29.80,9,2,9,0.00
2013-5-10,62,60,60,60,59,59,96,96,92,29.89,29.88,0,0,0,0.00
2013-5-11,60,60,60,59,59,59,96,96,96,29.88,29.88,0,0,0,0.00
2013-5-12,75,64,56,63,46,37,98,56,36,30.04,29.83,5,2,5,0.02
2013-5-13,72,58,47,43,37,27,79,48,20,30.16,30.03,10,2,10,0.00
2013-5-14,74,59,43,47,41,35,91,55,28,30.24,30.07,9,3,9,0.00
2013-5-15,88,74,55,63,57,46,85,57,39,30.08,29.94,9,4,9,0.00
2013-5-16,86,75,66,65,60,54,88,62,36,30.03,29.93,9,2,9,0.00
2013-5-17,86,74,62,68,64,60,97,71,44,30.08,30.00,8,2,8,0.00
2013-5-18,79,70,64,69,65,61,99,86,62,30.14,30.07,7,1,7,0.00
2013-5-19,75,68,65,71,67,65,99,98,87,30.13,30.04,9,2,9,0.73
2013-5-20,84,72,67,72,69,16,99,89,14,30.11,30.01,6,1,6,0.22
2013-5-21,68,67,65,68,67,64,99,99,99,30.05,30.00,4,1,4,0.00
2013-5-22,83,74,69,69,66,63,92,77,58,29.93,29.85,7,3,7,0.90
2013-5-23,83,70,65,71,66,16,99,88,15,29.92,29.78,7,2,7,0.20
2013-5-24,74,66,54,65,52,33,99,65,23,30.14,29.81,17,3,17,0.02
2013-5-25,79,63,45,50,44,37,97,55,26,30.25,30.10,9,2,9,0.00
2013-5-26,74,74,74,47,47,47,39,39,39,30.10,30.10,3,3,3,0.00
2013-5-27,74,74,74,47,47,47,39,39,39,30.10,30.10,3,3,3,0.00
2013-5-28,84,77,64,67,65,63,97,67,54,29.95,29.85,10,3,10,0.00
2013-5-29,85,75,62,67,64,61,96,70,48,29.96,29.86,8,3,8,0.00
2013-5-30,86,74,62,68,64,59,98,73,46,29.99,29.87,8,2,8,0.00
2013-5-31,88,76,64,70,67,63,99,76,48,29.94,29.81,8,2,8,0.00
2013-6-1,87,77,68,70,67,63,99,75,47,29.84,29.73,11,3,11,0.00
2013-6-2,86,76,67,73,68,64,99,79,50,29.77,29.59,10,4,10,1.31
2013-6-3,86,74,67,73,69,15,99,87,57,29.67,29.55,7,2,7,0.40
2013-6-4,84,74,66,71,68,66,99,82,63,29.77,29.64,9,2,9,0.00
2013-6-5,70,69,68,68,67,66,96,94,89,29.78,29.74,4,2,4,0.00
2013-6-6,76,71,69,74,70,68,99,97,91,29.76,29.65,11,2,11,0.71
2013-6-7,82,72,67,74,70,66,99,94,72,29.68,29.44,12,3,12,0.86
2013-6-8,84,74,67,72,69,67,99,86,59,29.93,29.66,7,2,7,0.02
2013-6-9,86,74,66,73,70,65,99,88,59,29.98,29.89,17,1,17,0.00
2013-6-10,84,74,69,76,72,23,99,94,15,29.92,29.74,20,4,20,1.07
2013-6-11,91,77,69,72,68,62,99,77,42,29.82,29.76,10,3,10,0.00
2013-6-12,92,79,65,76,70,64,99,77,53,29.84,29.72,8,2,8,0.00
2013-6-13,93,84,73,75,72,65,96,72,46,29.73,29.51,23,4,23,0.07
2013-6-14,84,76,63,69,59,55,94,59,41,29.85,29.60,12,3,12,0.00
2013-6-15,86,73,59,67,62,58,98,71,46,29.96,29.85,9,2,9,0.00
2013-6-16,87,76,66,71,67,62,92,74,51,29.98,29.85,10,4,10,0.00
2013-6-17,86,76,70,74,70,66,98,82,63,29.88,29.77,11,3,11,0.00
2013-6-18,85,76,70,74,71,70,98,87,64,29.82,29.62,11,4,11,0.02
2013-6-19,84,75,69,71,68,62,99,80,52,29.94,29.72,8,2,8,0.00
2013-6-20,85,74,66,68,66,64,99,78,51,30.06,29.93,10,2,10,0.00
2013-6-21,84,74,63,66,63,60,94,71,48,30.09,28.53,11,2,11,0.00
2013-6-22,85,74,66,72,68,60,95,80,61,30.06,29.95,11,2,11,0.00
2013-6-23,85,75,68,76,72,68,99,92,66,30.04,29.96,7,1,7,0.70
2013-6-24,86,75,72,76,72,69,99,91,66,29.99,29.81,8,2,8,0.70
2013-6-25,90,78,71,74,72,69,98,81,51,29.84,29.72,12,3,12,0.00
2013-6-26,90,78,70,75,72,68,98,82,55,29.75,29.62,8,3,8,0.07
2013-6-27,88,78,70,79,73,15,99,88,12,29.66,29.44,14,3,14,0.74
2013-6-28,88,80,70,76,73,69,99,81,57,30.02,29.40,15,3,15,0.47
2013-6-29,85,77,70,74,71,68,99,84,61,30.02,29.91,10,2,10,0.01
2013-6-30,83,75,67,75,72,66,99,91,70,30.14,29.99,9,2,9,0.48
2013-7-1,80,73,67,74,70,67,99,92,77,30.28,30.11,9,2,9,0.11
2013-7-2,79,73,71,74,72,70,99,95,81,30.44,30.27,14,4,14,0.20
2013-7-3,82,75,72,76,73,71,99,94,78,30.50,30.41,8,2,8,0.01
2013-7-4,86,78,75,75,74,72,94,85,65,30.52,30.46,11,4,11,0.17
2013-7-5,85,78,72,75,73,72,99,86,66,30.54,30.47,10,3,10,0.04
2013-7-6,84,76,70,77,73,69,99,92,72,30.53,30.41,14,2,14,0.02
2013-7-7,88,78,71,78,73,71,99,88,66,30.48,30.37,11,2,11,0.38
2013-7-8,87,78,71,77,74,71,99,87,62,30.48,30.40,6,2,6,0.05
2013-7-9,75,74,74,74,74,73,99,98,98,30.45,30.43,0,0,0,0.00
2013-7-10,74,74,74,74,74,74,98,98,98,30.44,30.44,0,0,0,0.00
2013-7-13,77,75,74,76,74,71,99,98,84,29.95,29.51,8,2,8,0.05
2013-7-14,87,78,72,76,73,71,99,86,63,30.14,29.95,14,3,14,0.12
2013-7-15,90,79,71,75,73,69,99,83,55,30.18,30.10,8,1,8,0.00
2013-7-16,89,80,70,76,72,69,98,80,55,30.16,29.76,6,0,6,0.15
2013-7-17,91,78,72,79,74,70,99,88,65,29.94,29.83,10,1,10,0.44
2013-7-18,91,80,70,78,74,70,99,83,58,29.88,29.77,6,1,6,0.00
2013-7-19,89,80,75,76,75,73,98,86,63,29.82,29.77,7,2,7,0.00
2013-7-20,86,79,75,76,74,73,97,87,68,29.75,29.64,6,3,6,0.00
2013-7-21,90,78,71,76,73,70,99,86,59,29.73,29.62,7,2,7,0.86
2013-7-22,87,80,71,76,74,70,98,81,65,29.68,29.55,8,3,8,0.01
2013-7-23,91,81,74,74,72,68,97,77,50,29.57,29.47,9,3,9,0.00
2013-7-24,92,79,70,75,72,69,99,81,49,29.57,29.45,8,2,8,0.17
2013-7-25,85,75,69,72,70,67,99,85,61,29.73,29.51,9,2,9,0.01
2013-7-26,86,76,67,72,69,67,99,82,56,29.81,29.72,7,1,7,0.00
2013-7-27,81,73,69,74,71,69,99,95,76,29.75,29.63,14,2,14,0.97
2013-7-28,87,77,70,74,72,69,98,84,57,29.70,29.62,8,2,8,0.01
2013-7-29,87,77,70,74,70,67,98,81,55,29.86,29.70,8,2,8,0.00
2013-7-30,86,76,67,72,68,63,99,79,53,29.92,29.84,6,1,6,0.00
2013-7-31,84,75,71,74,71,70,97,88,67,29.86,29.70,9,2,9,0.17
2013-8-1,86,76,70,76,73,70,98,90,64,31.32,29.58,8,1,8,0.00
2013-8-2,89,78,68,75,71,68,99,83,56,29.74,29.62,8,1,8,0.00
2013-8-3,90,80,74,77,73,69,99,81,52,29.73,29.64,7,2,7,0.00
2013-8-4,86,78,70,72,69,64,97,77,48,29.73,29.62,12,2,12,0.00
2013-8-5,85,76,68,71,68,64,96,77,52,29.78,29.69,8,2,8,0.00
2013-8-6,75,71,68,71,68,64,99,91,74,29.78,29.68,9,2,9,0.31
2013-8-7,84,76,70,74,71,66,98,85,57,29.80,29.72,9,2,9,0.00
2013-8-8,86,77,72,77,74,70,98,90,69,29.79,29.71,7,1,7,0.13
2013-8-9,88,80,73,77,75,72,99,85,66,29.81,29.72,11,3,11,0.14
2013-8-10,91,80,73,78,74,70,99,85,57,29.82,29.74,11,2,11,0.01
2013-8-11,92,81,71,76,73,70,99,80,54,29.83,29.74,7,2,7,0.00
2013-8-12,92,81,72,77,73,70,98,79,52,29.77,29.66,7,1,7,0.00
2013-8-13,90,80,72,77,73,70,99,82,57,29.68,29.50,10,3,10,0.26
2013-8-14,78,73,65,74,66,60,99,81,58,29.78,29.56,12,2,12,0.01
2013-8-15,77,68,61,63,60,56,95,78,52,29.85,29.76,12,2,12,0.00
2013-8-16,70,65,62,64,61,57,96,86,74,29.86,29.77,7,1,7,0.02
2013-8-17,68,64,62,67,64,61,99,97,88,29.87,29.81,9,3,9,0.52
2013-8-18,84,73,66,75,70,65,99,89,65,29.91,29.83,6,0,6,0.02
2013-8-19,78,72,68,74,70,68,99,96,83,29.88,29.80,6,1,6,0.39
2013-8-20,82,73,65,77,71,65,99,94,79,29.89,28.31,4,0,4,0.00
2013-8-21,84,76,72,81,74,70,99,94,79,29.93,29.84,10,1,10,0.78
2013-8-22,88,78,70,81,74,69,99,88,60,29.86,29.71,5,1,5,0.00
2013-8-23,89,79,69,76,72,68,99,81,55,29.77,29.67,10,1,10,0.00
2013-8-24,81,72,65,69,64,61,96,78,51,29.99,29.77,11,3,11,0.00
2013-8-25,80,70,61,66,62,58,98,78,50,30.08,29.98,10,2,10,0.00
2013-8-26,80,69,56,68,62,56,99,80,54,30.02,29.83,8,1,8,0.00
2013-8-27,88,74,69,74,68,66,94,83,48,29.92,29.83,4,0,4,0.00
2013-8-28,90,80,70,74,72,68,97,77,52,29.91,29.81,5,2,7,0.00
2013-8-29,91,83,76,74,73,70,89,73,53,29.83,29.77,9,2,9,0.00
2013-8-30,88,83,71,74,72,66,88,70,54,29.98,29.80,3,2,4,0.00
2013-8-31,88,77,67,76,71,66,97,84,59,29.93,29.83,7,2,7,0.00
2013-9-1,89,77,70,76,72,67,98,85,60,29.88,29.76,14,2,14,0.52
2013-9-2,88,77,70,76,73,69,99,88,54,29.88,29.78,6,1,6,0.05
2013-9-3,89,79,72,75,71,66,99,80,47,29.93,29.77,8,1,8,0.00
2013-9-4,86,76,66,71,65,61,91,71,48,30.05,29.92,9,2,9,0.00
2013-9-5,78,73,67,68,66,65,96,80,65,30.08,30.01,5,1,5,0.00
2013-9-6,82,76,67,66,61,58,84,61,44,29.95,29.73,10,3,10,0.07
2013-9-7,85,72,62,68,63,59,94,77,50,29.90,29.76,6,1,6,0.00
2013-9-8,87,76,65,70,66,62,96,73,44,29.77,29.69,9,1,9,0.00
2013-9-9,87,76,66,70,66,63,97,74,48,29.92,29.76,8,1,8,0.00
2013-9-10,88,76,65,73,68,64,98,77,48,30.01,29.92,8,1,8,0.00
2013-9-11,89,76,66,72,68,64,97,76,46,29.99,29.85,8,1,8,0.00
2013-9-12,90,78,70,72,68,65,92,72,47,29.85,29.62,8,2,8,0.00
2013-9-13,85,76,68,70,65,58,94,73,41,29.62,29.55,9,2,9,0.00
2013-9-14,76,67,58,59,54,51,86,65,51,29.88,29.67,11,3,11,0.00
2013-9-15,80,69,58,66,61,55,91,78,57,29.97,29.87,5,1,5,0.00
2013-9-16,86,80,67,72,64,57,95,60,39,29.93,29.81,8,2,8,0.00
2013-9-17,77,70,62,64,57,54,80,64,46,30.06,29.92,13,4,13,0.00
2013-9-18,74,64,56,57,55,52,93,73,52,30.06,29.93,11,2,11,0.00
2013-9-19,79,67,57,65,59,55,95,78,54,29.96,29.85,5,1,5,0.00
2013-9-20,84,72,62,70,65,60,95,79,54,29.85,29.69,7,1,7,0.00
2013-9-21,77,71,64,70,68,63,99,90,73,29.71,29.44,9,2,9,1.39
2013-9-22,77,67,61,67,59,54,99,78,47,30.35,29.44,14,3,14,0.51
2013-9-23,73,64,56,60,57,54,97,79,55,29.83,29.67,7,2,7,0.00
2013-9-24,70,64,56,61,58,56,99,84,67,29.92,29.81,4,2,4,0.00
2013-9-25,71,64,60,65,61,58,98,91,72,29.95,29.86,7,1,7,0.05
2013-9-26,75,66,59,63,58,52,99,77,47,30.03,29.87,10,2,10,0.01
2013-9-27,74,64,55,59,55,52,97,75,50,30.18,30.03,11,3,11,0.00
2013-9-28,86,62,54,65,54,52,97,76,48,30.24,30.08,15,3,15,1.96
2013-9-29,60,60,60,53,53,53,77,77,77,30.18,30.18,1,1,1,0.00
2013-9-30,60,60,60,53,53,53,77,77,77,30.18,30.18,1,1,1,0.00
2013-10-1,81,73,60,63,60,57,97,66,46,29.93,29.69,7,1,7,0.01
2013-10-2,81,65,57,64,61,56,99,87,74,29.95,29.69,4,1,4,0.01
2013-10-3,64,64,64,61,61,61,91,91,91,29.91,29.91,0,0,0,0.00
2013-10-4,64,64,64,61,61,61,91,91,91,29.91,29.91,0,0,0,0.00
2013-10-5,64,64,64,61,61,61,91,91,91,29.91,29.91,0,0,0,0.00
2013-10-6,64,64,64,61,61,61,91,91,91,29.91,29.91,0,0,0,0.00
2013-10-7,72,72,72,69,69,69,91,91,91,29.92,29.92,0,0,0,0.00
2013-10-8,140,72,61,100,69,52,91,90,72,29.92,29.92,2,0,2,0.11
2013-10-15,73,66,60,56,54,50,84,68,44,29.95,29.91,5,1,5,0.03
2013-10-16,74,64,56,62,58,54,93,81,61,29.94,29.82,5,1,5,0.00
2013-10-17,72,66,61,66,63,60,96,90,72,29.84,29.73,8,2,8,0.00
2013-10-18,68,62,56,66,58,54,98,85,67,29.90,29.75,9,2,9,0.00
2013-10-19,69,61,55,65,57,53,99,88,65,29.83,29.70,6,1,6,0.00
2013-10-20,65,55,47,53,46,40,98,76,44,29.96,29.77,11,2,11,0.00
2013-10-21,69,55,42,54,49,42,99,82,48,30.00,29.85,5,1,5,0.00
2013-10-22,68,60,54,60,56,52,99,89,70,29.88,29.67,6,1,6,0.00
2013-10-23,68,58,44,59,45,28,99,66,24,29.88,29.57,12,4,12,0.00
2013-10-24,61,48,36,45,36,29,92,67,39,30.02,29.88,10,2,10,0.00
2013-10-25,52,46,38,41,34,30,84,64,42,30.21,30.01,12,3,12,0.00
2013-10-26,59,44,30,38,31,26,90,63,34,30.20,29.93,8,2,8,0.00
2013-10-27,69,54,40,49,43,36,94,69,44,30.69,29.89,8,2,8,0.00
2013-10-28,67,51,46,58,49,45,98,94,71,30.06,29.96,3,0,3,0.00
2013-10-29,72,59,50,58,53,50,99,83,52,30.19,30.10,4,1,4,0.00
2013-10-30,77,65,50,58,56,50,99,75,47,30.15,30.01,9,1,9,0.00
2013-10-31,73,64,55,65,58,54,96,82,58,30.04,29.78,10,2,10,0.00
2013-11-1,70,66,59,67,63,58,98,90,80,29.79,29.54,14,5,14,0.01
2013-11-2,70,59,52,60,51,41,99,78,37,30.39,29.59,11,2,11,0.00
2013-11-3,61,52,43,42,38,34,84,62,38,30.19,29.83,11,2,11,0.00
2013-11-4,58,48,39,38,35,29,88,65,35,30.36,30.17,10,2,10,0.00
2013-11-5,58,46,39,46,37,32,81,73,63,30.38,30.27,10,3,10,0.01
2013-11-6,54,54,54,47,47,47,77,77,77,30.22,30.22,4,4,4,0.00
2013-11-7,69,60,44,61,49,33,99,70,43,29.98,29.81,14,3,14,0.00
2013-11-8,57,47,37,34,29,21,79,53,25,30.17,29.97,10,3,10,0.00
2013-11-9,59,47,31,38,31,24,89,58,29,30.22,30.04,10,2,10,0.00
2013-11-10,71,57,42,41,36,28,81,47,26,30.07,29.96,9,2,9,0.00
2013-11-11,60,48,37,36,30,24,83,52,26,30.20,29.99,8,2,8,0.00
2013-11-12,64,46,32,40,34,20,99,67,29,30.28,29.89,17,4,17,0.00
2013-11-13,45,34,26,24,19,13,81,55,28,30.39,30.27,11,3,11,0.00
2013-11-14,57,40,24,30,23,17,91,57,22,30.31,30.17,11,2,11,0.00
2013-11-15,60,48,33,49,38,24,96,69,49,30.19,30.04,7,1,7,0.00
2013-11-16,65,56,50,58,54,49,99,93,77,30.12,30.04,5,1,5,0.01
2013-11-17,71,61,53,66,58,52,99,92,66,30.06,29.78,8,2,8,0.01
2013-11-18,77,68,54,68,52,31,99,62,28,29.84,29.69,17,4,17,0.01
2013-11-19,56,49,43,33,26,21,57,42,26,30.11,29.84,15,4,15,0.00
2013-11-20,54,45,37,36,32,28,72,61,48,30.28,30.10,13,3,13,0.00
2013-11-21,73,45,44,47,38,34,76,74,64,30.30,29.59,10,4,10,0.00
2013-11-22,70,60,52,60,54,13,93,79,65,29.90,29.63,9,3,9,0.00
2013-11-23,62,57,43,60,47,10,98,74,24,30.03,29.60,11,2,11,0.00
2013-11-24,43,34,27,23,9,-2,47,35,21,30.25,29.92,12,3,12,0.00
2013-11-25,43,34,22,15,7,-2,57,33,22,30.07,29.84,9,2,9,0.00
2013-11-26,50,40,33,50,33,8,99,82,28,29.84,29.12,21,3,21,1.48
2013-11-27,46,40,30,45,34,15,98,79,49,29.70,29.04,19,5,19,0.38
2013-11-28,48,34,22,25,19,14,83,58,29,29.98,29.70,7,2,7,0.00
2013-11-29,54,39,25,34,24,18,93,60,24,30.10,29.95,9,2,9,0.00
2013-11-30,49,38,30,29,25,23,77,61,43,30.14,29.87,11,3,11,0.00
2013-12-1,60,44,31,42,34,26,90,69,41,29.87,29.54,7,2,7,0.00
2013-12-2,61,44,39,43,40,38,98,85,44,29.93,29.46,5,1,5,0.00
2013-12-3,62,53,44,53,47,40,91,80,65,30.01,29.89,9,2,9,0.00
2013-12-4,65,58,54,60,56,50,99,94,81,30.14,29.99,6,1,6,0.00
2013-12-5,66,63,60,66,63,59,99,98,95,30.17,30.08,10,3,10,0.05
2013-12-6,77,70,64,66,64,61,99,79,61,30.13,30.03,21,7,21,0.01
2013-12-7,70,58,46,64,52,38,96,81,73,30.06,29.91,17,6,17,0.13
2013-12-8,46,39,36,38,36,34,99,89,70,30.05,29.99,10,4,11,0.08
2013-12-9,47,41,36,47,40,35,99,97,95,30.02,29.79,6,2,8,0.24
2013-12-10,55,46,30,49,42,23,99,85,49,30.07,29.65,14,2,14,0.14
2013-12-11,52,37,25,35,25,19,90,64,28,30.19,30.02,9,2,9,0.01
2013-12-12,50,37,29,29,21,11,87,54,25,30.15,30.00,11,3,11,0.00
2013-12-13,53,38,24,33,23,15,79,57,29,30.11,29.99,9,2,9,0.00
2013-12-14,50,42,39,49,38,30,99,87,69,30.01,29.53,14,2,14,0.67
2013-12-15,56,45,32,46,36,26,99,75,43,29.85,29.47,13,3,13,0.02
2013-12-16,59,44,28,36,30,24,89,62,34,29.92,29.83,10,3,10,0.00
2013-12-17,64,52,39,36,33,30,70,50,31,29.87,29.68,15,6,15,0.00
2013-12-18,56,44,35,31,20,13,58,40,21,30.02,29.79,11,2,11,0.00
2013-12-19,64,47,30,30,24,18,77,45,20,30.07,29.96,11,3,11,0.00
2013-12-20,66,54,42,53,45,30,93,72,48,29.99,29.88,13,3,13,0.00
2013-12-21,73,62,49,65,58,49,99,85,64,29.90,29.77,12,4,12,0.00
2013-12-22,76,68,64,69,66,63,99,91,70,29.85,29.76,14,5,14,0.69
2013-12-23,65,59,47,64,58,38,99,94,70,29.92,29.76,14,3,14,1.46
2013-12-24,49,42,31,38,26,13,72,54,34,30.66,29.90,14,5,14,0.00
2013-12-25,41,32,24,22,12,2,66,46,24,30.28,30.12,12,3,12,0.00
2013-12-26,56,41,33,28,22,16,70,49,25,30.12,29.98,6,2,6,0.00
2013-12-27,54,41,31,27,21,16,75,47,23,30.20,30.08,6,2,6,0.00
2013-12-28,57,42,26,38,27,20,86,59,28,30.14,29.83,8,1,8,0.00
2013-12-29,54,46,42,49,45,31,99,94,49,29.84,29.52,10,3,10,1.05
2013-12-30,56,46,36,48,41,35,99,86,57,29.86,29.68,6,1,6,0.00
2013-12-31,52,44,35,45,32,21,96,68,31,30.11,29.83,9,2,9,0.00
2014-1-1,50,40,32,34,29,22,84,64,41,30.13,29.88,6,2,6,0.00
2014-1-2,50,44,38,47,40,27,99,86,61,30.16,29.39,16,3,16,0.19